sensor_id;sensor_type;location;lat;lon;timestamp;temperature;humidity
25640;DHT22;13497;48.322;16.204;2022-09-09T00:03:53;15.30;99.90
25640;DHT22;13497;48.322;16.204;2022-09-09T00:06:24;15.20;99.90
25640;DHT22;13497;48.322;16.204;2022-09-09T00:09:17;15.10;99.90
25640;DHT22;13497;48.322;16.204;2022-09-09T00:11:51;15.10;99.90
25640;DHT22;13497;48.322;16.204;2022-09-09T00:18:11;15.00;99.90
25640;DHT22;13497;48.322;16.204;2022-09-09T00:22:50;14.90;99.90
25640;DHT22;13497;48.322;16.204;2022-09-09T00:25:31;14.90;99.90
25640;DHT22;13497;48.322;16.204;2022-09-09T00:27:59;14.90;99.90
25640;DHT22;13497;48.322;16.204;2022-09-09T00:30:27;14.90;99.90
25640;DHT22;13497;48.322;16.204;2022-09-09T00:33:01;14.90;99.90
25640;DHT22;13497;48.322;16.204;2022-09-09T00:35:38;14.80;99.90
25640;DHT22;13497;48.322;16.204;2022-09-09T00:38:18;14.80;99.90
25640;DHT22;13497;48.322;16.204;2022-09-09T00:56:36;14.80;99.90
25640;DHT22;13497;48.322;16.204;2022-09-09T01:01:36;14.60;99.90
25640;DHT22;13497;48.322;16.204;2022-09-09T01:04:06;14.60;99.90
25640;DHT22;13497;48.322;16.204;2022-09-09T01:06:35;14.60;99.90
25640;DHT22;13497;48.322;16.204;2022-09-09T01:09:22;14.60;99.90
25640;DHT22;13497;48.322;16.204;2022-09-09T01:17:14;14.60;99.90
25640;DHT22;13497;48.322;16.204;2022-09-09T01:24:42;14.60;99.90
25640;DHT22;13497;48.322;16.204;2022-09-09T01:27:10;14.50;99.90
25640;DHT22;13497;48.322;16.204;2022-09-09T01:29:37;14.50;99.90
25640;DHT22;13497;48.322;16.204;2022-09-09T01:32:40;14.40;99.90
25640;DHT22;13497;48.322;16.204;2022-09-09T01:35:10;14.40;99.90
25640;DHT22;13497;48.322;16.204;2022-09-09T01:37:37;14.50;99.90
25640;DHT22;13497;48.322;16.204;2022-09-09T01:40:03;14.40;99.90
25640;DHT22;13497;48.322;16.204;2022-09-09T01:42:28;14.40;99.90
25640;DHT22;13497;48.322;16.204;2022-09-09T01:44:54;14.40;99.90
25640;DHT22;13497;48.322;16.204;2022-09-09T01:47:20;14.30;99.90
25640;DHT22;13497;48.322;16.204;2022-09-09T01:49:46;14.30;99.90
25640;DHT22;13497;48.322;16.204;2022-09-09T01:52:11;14.30;99.90
25640;DHT22;13497;48.322;16.204;2022-09-09T01:54:37;14.30;99.90
25640;DHT22;13497;48.322;16.204;2022-09-09T01:57:23;14.30;99.90
25640;DHT22;13497;48.322;16.204;2022-09-09T02:03:00;14.30;99.90
25640;DHT22;13497;48.322;16.204;2022-09-09T02:08:16;14.20;99.90
25640;DHT22;13497;48.322;16.204;2022-09-09T02:10:59;14.20;99.90
25640;DHT22;13497;48.322;16.204;2022-09-09T02:13:28;14.30;99.90
25640;DHT22;13497;48.322;16.204;2022-09-09T02:16:00;14.20;99.90
25640;DHT22;13497;48.322;16.204;2022-09-09T02:21:11;14.30;99.90
25640;DHT22;13497;48.322;16.204;2022-09-09T02:23:40;14.40;99.90
25640;DHT22;13497;48.322;16.204;2022-09-09T02:26:09;14.40;99.90
25640;DHT22;13497;48.322;16.204;2022-09-09T02:28:37;14.40;99.90
25640;DHT22;13497;48.322;16.204;2022-09-09T02:31:04;14.40;99.90
25640;DHT22;13497;48.322;16.204;2022-09-09T02:33:35;14.40;99.90
25640;DHT22;13497;48.322;16.204;2022-09-09T02:36:03;14.40;99.90
25640;DHT22;13497;48.322;16.204;2022-09-09T02:38:35;14.30;99.90
25640;DHT22;13497;48.322;16.204;2022-09-09T02:41:01;14.20;99.90
25640;DHT22;13497;48.322;16.204;2022-09-09T02:43:34;14.10;99.90
25640;DHT22;13497;48.322;16.204;2022-09-09T02:51:40;14.00;99.90
25640;DHT22;13497;48.322;16.204;2022-09-09T02:54:41;14.00;99.90
25640;DHT22;13497;48.322;16.204;2022-09-09T02:57:11;13.90;99.90
25640;DHT22;13497;48.322;16.204;2022-09-09T02:59:38;13.90;99.90
25640;DHT22;13497;48.322;16.204;2022-09-09T03:02:04;13.90;99.90
25640;DHT22;13497;48.322;16.204;2022-09-09T03:04:29;13.90;99.90
25640;DHT22;13497;48.322;16.204;2022-09-09T03:06:57;13.90;99.90
25640;DHT22;13497;48.322;16.204;2022-09-09T03:09:23;13.90;99.90
25640;DHT22;13497;48.322;16.204;2022-09-09T03:11:49;13.80;99.90
25640;DHT22;13497;48.322;16.204;2022-09-09T03:14:17;13.90;99.90
25640;DHT22;13497;48.322;16.204;2022-09-09T03:16:46;13.90;99.90
25640;DHT22;13497;48.322;16.204;2022-09-09T03:19:12;13.90;99.90
25640;DHT22;13497;48.322;16.204;2022-09-09T03:21:39;13.90;99.90
25640;DHT22;13497;48.322;16.204;2022-09-09T03:24:05;13.90;99.90
25640;DHT22;13497;48.322;16.204;2022-09-09T03:26:32;13.90;99.90
25640;DHT22;13497;48.322;16.204;2022-09-09T03:28:57;13.90;99.90
25640;DHT22;13497;48.322;16.204;2022-09-09T03:31:25;13.90;99.90
25640;DHT22;13497;48.322;16.204;2022-09-09T03:33:51;13.80;99.90
25640;DHT22;13497;48.322;16.204;2022-09-09T03:36:17;13.80;99.90
25640;DHT22;13497;48.322;16.204;2022-09-09T03:38:42;13.70;99.90
25640;DHT22;13497;48.322;16.204;2022-09-09T03:41:08;13.80;99.90
25640;DHT22;13497;48.322;16.204;2022-09-09T03:43:34;13.80;99.90
25640;DHT22;13497;48.322;16.204;2022-09-09T03:46:00;13.80;99.90
25640;DHT22;13497;48.322;16.204;2022-09-09T03:48:27;13.90;99.90
25640;DHT22;13497;48.322;16.204;2022-09-09T03:50:54;13.80;99.90
25640;DHT22;13497;48.322;16.204;2022-09-09T03:53:24;13.70;99.90
25640;DHT22;13497;48.322;16.204;2022-09-09T03:55:52;13.70;99.90
25640;DHT22;13497;48.322;16.204;2022-09-09T03:58:21;13.70;99.90
25640;DHT22;13497;48.322;16.204;2022-09-09T04:01:01;13.70;99.90
25640;DHT22;13497;48.322;16.204;2022-09-09T04:03:28;13.70;99.90
25640;DHT22;13497;48.322;16.204;2022-09-09T04:05:55;13.70;99.90
25640;DHT22;13497;48.322;16.204;2022-09-09T04:08:21;13.70;99.90
25640;DHT22;13497;48.322;16.204;2022-09-09T04:10:48;13.70;99.90
25640;DHT22;13497;48.322;16.204;2022-09-09T04:13:15;13.60;99.90
25640;DHT22;13497;48.322;16.204;2022-09-09T04:15:44;13.60;99.90
25640;DHT22;13497;48.322;16.204;2022-09-09T04:18:10;13.50;99.90
25640;DHT22;13497;48.322;16.204;2022-09-09T04:20:37;13.50;99.90
25640;DHT22;13497;48.322;16.204;2022-09-09T04:23:03;13.50;99.90
25640;DHT22;13497;48.322;16.204;2022-09-09T04:25:28;13.50;99.90
25640;DHT22;13497;48.322;16.204;2022-09-09T04:27:55;13.60;99.90
25640;DHT22;13497;48.322;16.204;2022-09-09T04:30:21;13.60;99.90
25640;DHT22;13497;48.322;16.204;2022-09-09T04:32:47;13.60;99.90
25640;DHT22;13497;48.322;16.204;2022-09-09T04:35:14;13.60;99.90
25640;DHT22;13497;48.322;16.204;2022-09-09T04:37:40;13.60;99.90
25640;DHT22;13497;48.322;16.204;2022-09-09T04:40:06;13.60;99.90
25640;DHT22;13497;48.322;16.204;2022-09-09T04:42:35;13.60;99.90
25640;DHT22;13497;48.322;16.204;2022-09-09T04:45:01;13.60;99.90
25640;DHT22;13497;48.322;16.204;2022-09-09T04:47:27;13.60;99.90
25640;DHT22;13497;48.322;16.204;2022-09-09T04:49:52;13.70;99.90
25640;DHT22;13497;48.322;16.204;2022-09-09T04:52:20;13.70;99.90
25640;DHT22;13497;48.322;16.204;2022-09-09T04:54:46;13.70;99.90
25640;DHT22;13497;48.322;16.204;2022-09-09T04:57:12;13.70;99.90
25640;DHT22;13497;48.322;16.204;2022-09-09T04:59:38;13.70;99.90
25640;DHT22;13497;48.322;16.204;2022-09-09T05:02:04;13.80;99.90
25640;DHT22;13497;48.322;16.204;2022-09-09T05:04:30;13.80;99.90
25640;DHT22;13497;48.322;16.204;2022-09-09T05:06:56;13.90;99.90
25640;DHT22;13497;48.322;16.204;2022-09-09T05:09:22;13.90;99.90
25640;DHT22;13497;48.322;16.204;2022-09-09T05:11:47;13.90;99.90
25640;DHT22;13497;48.322;16.204;2022-09-09T05:14:14;14.00;99.90
25640;DHT22;13497;48.322;16.204;2022-09-09T05:16:40;14.20;99.90
25640;DHT22;13497;48.322;16.204;2022-09-09T05:19:06;14.50;99.90
25640;DHT22;13497;48.322;16.204;2022-09-09T05:21:33;15.10;99.90
25640;DHT22;13497;48.322;16.204;2022-09-09T05:23:59;15.50;99.90
25640;DHT22;13497;48.322;16.204;2022-09-09T05:26:26;15.80;99.90
25640;DHT22;13497;48.322;16.204;2022-09-09T05:28:52;16.00;99.90
25640;DHT22;13497;48.322;16.204;2022-09-09T05:31:18;16.20;99.90
25640;DHT22;13497;48.322;16.204;2022-09-09T05:33:44;16.70;99.90
25640;DHT22;13497;48.322;16.204;2022-09-09T05:36:16;17.20;99.90
25640;DHT22;13497;48.322;16.204;2022-09-09T05:38:42;17.40;99.90
25640;DHT22;13497;48.322;16.204;2022-09-09T05:41:09;17.70;99.90
25640;DHT22;13497;48.322;16.204;2022-09-09T05:43:38;18.10;99.90
25640;DHT22;13497;48.322;16.204;2022-09-09T05:46:09;18.50;99.90
25640;DHT22;13497;48.322;16.204;2022-09-09T05:48:37;18.70;99.90
25640;DHT22;13497;48.322;16.204;2022-09-09T05:51:05;18.80;99.90
25640;DHT22;13497;48.322;16.204;2022-09-09T05:53:32;19.30;99.90
25640;DHT22;13497;48.322;16.204;2022-09-09T05:56:22;19.30;99.90
25640;DHT22;13497;48.322;16.204;2022-09-09T05:58:48;18.70;99.90
25640;DHT22;13497;48.322;16.204;2022-09-09T06:01:15;18.20;99.90
25640;DHT22;13497;48.322;16.204;2022-09-09T06:03:42;17.80;99.90
25640;DHT22;13497;48.322;16.204;2022-09-09T06:06:10;17.50;99.90
25640;DHT22;13497;48.322;16.204;2022-09-09T06:08:38;17.10;99.90
25640;DHT22;13497;48.322;16.204;2022-09-09T06:11:08;17.00;99.90
25640;DHT22;13497;48.322;16.204;2022-09-09T06:13:34;16.90;99.90
25640;DHT22;13497;48.322;16.204;2022-09-09T06:16:00;16.80;99.90
25640;DHT22;13497;48.322;16.204;2022-09-09T06:18:26;16.70;99.90
25640;DHT22;13497;48.322;16.204;2022-09-09T06:21:02;16.70;99.90
25640;DHT22;13497;48.322;16.204;2022-09-09T06:23:32;16.70;99.90
25640;DHT22;13497;48.322;16.204;2022-09-09T06:26:04;16.80;99.90
25640;DHT22;13497;48.322;16.204;2022-09-09T06:28:34;16.80;99.90
25640;DHT22;13497;48.322;16.204;2022-09-09T06:31:01;16.90;99.90
25640;DHT22;13497;48.322;16.204;2022-09-09T06:33:31;17.00;99.90
25640;DHT22;13497;48.322;16.204;2022-09-09T06:35:57;17.10;99.90
25640;DHT22;13497;48.322;16.204;2022-09-09T06:38:23;17.10;99.90
25640;DHT22;13497;48.322;16.204;2022-09-09T06:40:53;17.10;99.90
25640;DHT22;13497;48.322;16.204;2022-09-09T06:43:22;17.20;99.90
25640;DHT22;13497;48.322;16.204;2022-09-09T06:46:03;17.20;99.90
25640;DHT22;13497;48.322;16.204;2022-09-09T06:48:30;17.20;99.90
25640;DHT22;13497;48.322;16.204;2022-09-09T06:51:07;17.30;99.90
25640;DHT22;13497;48.322;16.204;2022-09-09T06:53:35;17.40;99.90
25640;DHT22;13497;48.322;16.204;2022-09-09T06:56:03;17.40;99.90
25640;DHT22;13497;48.322;16.204;2022-09-09T06:58:41;17.30;99.90
25640;DHT22;13497;48.322;16.204;2022-09-09T07:01:10;17.30;99.90
25640;DHT22;13497;48.322;16.204;2022-09-09T07:03:38;17.40;99.90
25640;DHT22;13497;48.322;16.204;2022-09-09T07:06:04;17.50;99.90
25640;DHT22;13497;48.322;16.204;2022-09-09T07:08:30;17.60;99.90
25640;DHT22;13497;48.322;16.204;2022-09-09T07:11:05;17.70;99.90
25640;DHT22;13497;48.322;16.204;2022-09-09T07:13:32;17.90;99.90
25640;DHT22;13497;48.322;16.204;2022-09-09T07:16:09;18.10;99.90
25640;DHT22;13497;48.322;16.204;2022-09-09T07:18:35;18.30;99.90
25640;DHT22;13497;48.322;16.204;2022-09-09T07:21:02;18.20;99.90
25640;DHT22;13497;48.322;16.204;2022-09-09T07:23:29;18.40;99.90
25640;DHT22;13497;48.322;16.204;2022-09-09T07:25:55;18.70;99.90
25640;DHT22;13497;48.322;16.204;2022-09-09T07:28:21;18.90;99.90
25640;DHT22;13497;48.322;16.204;2022-09-09T07:30:58;19.10;99.90
25640;DHT22;13497;48.322;16.204;2022-09-09T07:33:25;19.20;99.90
25640;DHT22;13497;48.322;16.204;2022-09-09T07:35:51;19.40;99.90
25640;DHT22;13497;48.322;16.204;2022-09-09T07:38:18;19.70;99.90
25640;DHT22;13497;48.322;16.204;2022-09-09T07:40:45;19.90;99.90
25640;DHT22;13497;48.322;16.204;2022-09-09T07:43:11;20.10;99.90
25640;DHT22;13497;48.322;16.204;2022-09-09T07:45:37;20.30;99.90
25640;DHT22;13497;48.322;16.204;2022-09-09T07:48:03;20.30;99.90
25640;DHT22;13497;48.322;16.204;2022-09-09T07:50:30;20.30;99.90
25640;DHT22;13497;48.322;16.204;2022-09-09T07:52:56;20.20;99.90
25640;DHT22;13497;48.322;16.204;2022-09-09T07:55:22;20.10;99.90
25640;DHT22;13497;48.322;16.204;2022-09-09T07:57:51;20.10;99.90
25640;DHT22;13497;48.322;16.204;2022-09-09T08:00:17;20.10;99.90
25640;DHT22;13497;48.322;16.204;2022-09-09T08:02:44;20.20;99.90
25640;DHT22;13497;48.322;16.204;2022-09-09T08:05:09;20.20;99.90
25640;DHT22;13497;48.322;16.204;2022-09-09T08:07:35;20.40;99.90
25640;DHT22;13497;48.322;16.204;2022-09-09T08:10:02;20.50;99.90
25640;DHT22;13497;48.322;16.204;2022-09-09T08:12:27;20.80;99.90
25640;DHT22;13497;48.322;16.204;2022-09-09T08:14:53;20.80;99.90
25640;DHT22;13497;48.322;16.204;2022-09-09T08:17:19;20.80;99.90
25640;DHT22;13497;48.322;16.204;2022-09-09T08:19:45;20.80;99.90
25640;DHT22;13497;48.322;16.204;2022-09-09T08:22:11;21.00;99.90
25640;DHT22;13497;48.322;16.204;2022-09-09T08:24:36;21.00;99.90
25640;DHT22;13497;48.322;16.204;2022-09-09T08:27:02;21.10;99.90
25640;DHT22;13497;48.322;16.204;2022-09-09T08:29:28;21.10;99.90
25640;DHT22;13497;48.322;16.204;2022-09-09T08:31:58;21.10;99.90
25640;DHT22;13497;48.322;16.204;2022-09-09T08:34:24;21.30;99.90
25640;DHT22;13497;48.322;16.204;2022-09-09T08:36:53;21.20;99.90
25640;DHT22;13497;48.322;16.204;2022-09-09T08:39:20;21.30;99.90
25640;DHT22;13497;48.322;16.204;2022-09-09T08:50:30;22.00;99.90
25640;DHT22;13497;48.322;16.204;2022-09-09T08:58:29;22.80;99.90
25640;DHT22;13497;48.322;16.204;2022-09-09T09:08:55;23.10;99.90
25640;DHT22;13497;48.322;16.204;2022-09-09T09:11:21;23.40;99.70
25640;DHT22;13497;48.322;16.204;2022-09-09T09:16:34;23.20;99.90
25640;DHT22;13497;48.322;16.204;2022-09-09T09:19:03;23.10;99.90
25640;DHT22;13497;48.322;16.204;2022-09-09T09:21:42;23.00;99.90
25640;DHT22;13497;48.322;16.204;2022-09-09T09:24:23;23.20;99.80
25640;DHT22;13497;48.322;16.204;2022-09-09T09:26:52;23.30;99.80
25640;DHT22;13497;48.322;16.204;2022-09-09T09:29:19;23.40;99.60
25640;DHT22;13497;48.322;16.204;2022-09-09T09:31:56;23.40;99.70
25640;DHT22;13497;48.322;16.204;2022-09-09T09:34:24;23.60;99.50
25640;DHT22;13497;48.322;16.204;2022-09-09T09:36:55;23.80;99.40
25640;DHT22;13497;48.322;16.204;2022-09-09T09:39:24;23.80;99.30
25640;DHT22;13497;48.322;16.204;2022-09-09T09:41:51;23.90;99.30
25640;DHT22;13497;48.322;16.204;2022-09-09T09:44:21;24.10;99.40
25640;DHT22;13497;48.322;16.204;2022-09-09T09:46:48;24.10;99.30
25640;DHT22;13497;48.322;16.204;2022-09-09T09:49:13;24.00;99.50
25640;DHT22;13497;48.322;16.204;2022-09-09T09:51:39;24.10;99.20
25640;DHT22;13497;48.322;16.204;2022-09-09T09:54:34;24.00;99.10
25640;DHT22;13497;48.322;16.204;2022-09-09T09:57:13;24.30;99.10
25640;DHT22;13497;48.322;16.204;2022-09-09T09:59:40;24.50;98.60
25640;DHT22;13497;48.322;16.204;2022-09-09T10:02:20;24.30;98.30
25640;DHT22;13497;48.322;16.204;2022-09-09T10:05:13;24.40;98.70
25640;DHT22;13497;48.322;16.204;2022-09-09T10:07:39;24.40;98.80
25640;DHT22;13497;48.322;16.204;2022-09-09T10:10:05;24.50;98.70
25640;DHT22;13497;48.322;16.204;2022-09-09T10:12:49;24.80;98.00
25640;DHT22;13497;48.322;16.204;2022-09-09T10:26:45;25.60;96.40
25640;DHT22;13497;48.322;16.204;2022-09-09T10:29:07;25.50;96.00
25640;DHT22;13497;48.322;16.204;2022-09-09T10:35:04;25.40;94.70
25640;DHT22;13497;48.322;16.204;2022-09-09T10:40:43;25.40;94.50
25640;DHT22;13497;48.322;16.204;2022-09-09T10:43:40;25.40;94.30
25640;DHT22;13497;48.322;16.204;2022-09-09T10:57:48;24.80;94.20
25640;DHT22;13497;48.322;16.204;2022-09-09T11:00:17;24.90;94.30
25640;DHT22;13497;48.322;16.204;2022-09-09T11:02:47;25.00;94.30
25640;DHT22;13497;48.322;16.204;2022-09-09T11:05:33;25.10;93.80
25640;DHT22;13497;48.322;16.204;2022-09-09T11:08:02;25.50;93.50
25640;DHT22;13497;48.322;16.204;2022-09-09T11:10:51;26.10;93.30
25640;DHT22;13497;48.322;16.204;2022-09-09T11:19:02;26.20;91.90
25640;DHT22;13497;48.322;16.204;2022-09-09T11:21:34;26.30;91.70
25640;DHT22;13497;48.322;16.204;2022-09-09T11:24:10;26.60;91.20
25640;DHT22;13497;48.322;16.204;2022-09-09T11:26:45;26.30;91.20
25640;DHT22;13497;48.322;16.204;2022-09-09T11:32:04;25.60;91.30
25640;DHT22;13497;48.322;16.204;2022-09-09T11:34:53;25.30;91.80
25640;DHT22;13497;48.322;16.204;2022-09-09T11:37:42;25.30;91.90
25640;DHT22;13497;48.322;16.204;2022-09-09T11:40:16;25.50;92.00
25640;DHT22;13497;48.322;16.204;2022-09-09T11:42:45;25.50;91.80
25640;DHT22;13497;48.322;16.204;2022-09-09T11:45:31;25.50;92.00
25640;DHT22;13497;48.322;16.204;2022-09-09T11:48:02;25.60;91.80
25640;DHT22;13497;48.322;16.204;2022-09-09T11:50:32;25.80;91.70
25640;DHT22;13497;48.322;16.204;2022-09-09T11:53:24;25.80;91.50
25640;DHT22;13497;48.322;16.204;2022-09-09T11:56:22;25.50;91.80
25640;DHT22;13497;48.322;16.204;2022-09-09T12:01:37;25.30;92.30
25640;DHT22;13497;48.322;16.204;2022-09-09T12:04:13;25.30;92.00
25640;DHT22;13497;48.322;16.204;2022-09-09T12:06:45;25.30;92.40
25640;DHT22;13497;48.322;16.204;2022-09-09T12:09:22;25.20;92.20
25640;DHT22;13497;48.322;16.204;2022-09-09T12:11:49;24.90;92.70
25640;DHT22;13497;48.322;16.204;2022-09-09T12:14:44;24.90;92.90
25640;DHT22;13497;48.322;16.204;2022-09-09T12:19:41;25.20;92.70
25640;DHT22;13497;48.322;16.204;2022-09-09T12:25:05;25.20;92.50
25640;DHT22;13497;48.322;16.204;2022-09-09T12:27:42;25.20;92.60
25640;DHT22;13497;48.322;16.204;2022-09-09T12:30:14;25.10;92.50
25640;DHT22;13497;48.322;16.204;2022-09-09T12:32:40;24.90;92.10
25640;DHT22;13497;48.322;16.204;2022-09-09T12:35:19;25.00;92.50
25640;DHT22;13497;48.322;16.204;2022-09-09T12:38:17;25.00;92.40
25640;DHT22;13497;48.322;16.204;2022-09-09T12:40:57;24.90;92.60
25640;DHT22;13497;48.322;16.204;2022-09-09T12:43:25;25.00;92.80
25640;DHT22;13497;48.322;16.204;2022-09-09T12:46:07;25.10;92.60
25640;DHT22;13497;48.322;16.204;2022-09-09T12:48:38;24.80;92.90
25640;DHT22;13497;48.322;16.204;2022-09-09T12:54:14;24.70;92.80
25640;DHT22;13497;48.322;16.204;2022-09-09T12:56:45;24.60;92.90
25640;DHT22;13497;48.322;16.204;2022-09-09T12:59:37;24.60;93.10
25640;DHT22;13497;48.322;16.204;2022-09-09T13:02:16;24.40;93.00
25640;DHT22;13497;48.322;16.204;2022-09-09T13:04:44;24.40;93.50
25640;DHT22;13497;48.322;16.204;2022-09-09T13:07:13;24.30;93.30
25640;DHT22;13497;48.322;16.204;2022-09-09T13:09:39;24.30;93.50
25640;DHT22;13497;48.322;16.204;2022-09-09T13:12:27;24.20;93.50
25640;DHT22;13497;48.322;16.204;2022-09-09T13:14:55;24.00;93.70
25640;DHT22;13497;48.322;16.204;2022-09-09T13:17:26;23.80;94.00
25640;DHT22;13497;48.322;16.204;2022-09-09T13:19:54;23.70;94.40
25640;DHT22;13497;48.322;16.204;2022-09-09T13:25:05;23.40;94.60
25640;DHT22;13497;48.322;16.204;2022-09-09T13:27:37;23.40;94.70
25640;DHT22;13497;48.322;16.204;2022-09-09T13:38:14;23.10;96.30
25640;DHT22;13497;48.322;16.204;2022-09-09T13:40:40;23.00;96.90
25640;DHT22;13497;48.322;16.204;2022-09-09T13:43:18;22.90;97.70
25640;DHT22;13497;48.322;16.204;2022-09-09T13:46:00;22.70;98.20
25640;DHT22;13497;48.322;16.204;2022-09-09T13:48:26;22.50;98.40
25640;DHT22;13497;48.322;16.204;2022-09-09T13:51:04;22.50;98.80
25640;DHT22;13497;48.322;16.204;2022-09-09T13:53:33;22.40;99.40
25640;DHT22;13497;48.322;16.204;2022-09-09T13:55:59;22.40;99.60
25640;DHT22;13497;48.322;16.204;2022-09-09T13:58:25;22.10;99.90
25640;DHT22;13497;48.322;16.204;2022-09-09T14:00:52;21.60;99.90
25640;DHT22;13497;48.322;16.204;2022-09-09T14:03:19;21.10;99.90
25640;DHT22;13497;48.322;16.204;2022-09-09T14:05:45;20.70;99.90
25640;DHT22;13497;48.322;16.204;2022-09-09T14:08:19;20.50;99.90
25640;DHT22;13497;48.322;16.204;2022-09-09T14:10:46;20.30;99.90
25640;DHT22;13497;48.322;16.204;2022-09-09T14:13:12;20.10;99.90
25640;DHT22;13497;48.322;16.204;2022-09-09T14:15:38;19.90;99.90
25640;DHT22;13497;48.322;16.204;2022-09-09T14:18:04;19.60;99.90
25640;DHT22;13497;48.322;16.204;2022-09-09T14:20:29;19.50;99.90
25640;DHT22;13497;48.322;16.204;2022-09-09T14:22:58;19.50;99.90
25640;DHT22;13497;48.322;16.204;2022-09-09T14:25:24;19.50;99.90
25640;DHT22;13497;48.322;16.204;2022-09-09T14:27:49;19.50;99.90
25640;DHT22;13497;48.322;16.204;2022-09-09T14:30:16;19.60;99.90
25640;DHT22;13497;48.322;16.204;2022-09-09T14:32:43;19.60;99.90
25640;DHT22;13497;48.322;16.204;2022-09-09T14:35:08;19.50;99.90
25640;DHT22;13497;48.322;16.204;2022-09-09T14:37:34;19.50;99.90
25640;DHT22;13497;48.322;16.204;2022-09-09T14:40:00;19.40;99.90
25640;DHT22;13497;48.322;16.204;2022-09-09T14:42:25;19.40;99.90
25640;DHT22;13497;48.322;16.204;2022-09-09T14:44:52;19.40;99.90
25640;DHT22;13497;48.322;16.204;2022-09-09T14:47:17;19.40;99.90
25640;DHT22;13497;48.322;16.204;2022-09-09T14:49:43;19.40;99.90
25640;DHT22;13497;48.322;16.204;2022-09-09T14:52:09;19.40;99.90
25640;DHT22;13497;48.322;16.204;2022-09-09T14:54:35;19.40;99.90
25640;DHT22;13497;48.322;16.204;2022-09-09T14:57:02;19.50;99.90
25640;DHT22;13497;48.322;16.204;2022-09-09T14:59:28;19.60;99.90
25640;DHT22;13497;48.322;16.204;2022-09-09T15:01:53;19.60;99.90
25640;DHT22;13497;48.322;16.204;2022-09-09T15:04:19;19.60;99.90
25640;DHT22;13497;48.322;16.204;2022-09-09T15:06:45;19.60;99.90
25640;DHT22;13497;48.322;16.204;2022-09-09T15:09:14;19.70;99.90
25640;DHT22;13497;48.322;16.204;2022-09-09T15:11:39;19.60;99.90
25640;DHT22;13497;48.322;16.204;2022-09-09T15:14:07;19.60;99.90
25640;DHT22;13497;48.322;16.204;2022-09-09T15:16:34;19.50;99.90
25640;DHT22;13497;48.322;16.204;2022-09-09T15:19:00;19.50;99.90
25640;DHT22;13497;48.322;16.204;2022-09-09T15:21:29;19.50;99.90
25640;DHT22;13497;48.322;16.204;2022-09-09T15:23:56;19.50;99.90
25640;DHT22;13497;48.322;16.204;2022-09-09T15:26:22;19.50;99.90
25640;DHT22;13497;48.322;16.204;2022-09-09T15:28:48;19.40;99.90
25640;DHT22;13497;48.322;16.204;2022-09-09T15:31:19;19.50;99.90
25640;DHT22;13497;48.322;16.204;2022-09-09T15:36:22;19.40;99.90
25640;DHT22;13497;48.322;16.204;2022-09-09T15:38:48;19.50;99.90
25640;DHT22;13497;48.322;16.204;2022-09-09T15:41:15;19.50;99.90
25640;DHT22;13497;48.322;16.204;2022-09-09T15:43:47;19.40;99.90
25640;DHT22;13497;48.322;16.204;2022-09-09T15:46:22;19.30;99.90
25640;DHT22;13497;48.322;16.204;2022-09-09T15:48:53;19.30;99.90
25640;DHT22;13497;48.322;16.204;2022-09-09T15:51:21;19.20;99.90
25640;DHT22;13497;48.322;16.204;2022-09-09T15:53:47;19.10;99.90
25640;DHT22;13497;48.322;16.204;2022-09-09T15:56:13;19.00;99.90
25640;DHT22;13497;48.322;16.204;2022-09-09T15:58:40;18.90;99.90
25640;DHT22;13497;48.322;16.204;2022-09-09T16:01:09;18.90;99.90
25640;DHT22;13497;48.322;16.204;2022-09-09T16:03:37;18.80;99.90
25640;DHT22;13497;48.322;16.204;2022-09-09T16:06:04;18.70;99.90
25640;DHT22;13497;48.322;16.204;2022-09-09T16:08:42;18.60;99.90
25640;DHT22;13497;48.322;16.204;2022-09-09T16:13:36;18.50;99.90
25640;DHT22;13497;48.322;16.204;2022-09-09T16:16:03;18.40;99.90
25640;DHT22;13497;48.322;16.204;2022-09-09T16:18:36;18.30;99.90
25640;DHT22;13497;48.322;16.204;2022-09-09T16:21:02;18.30;99.90
25640;DHT22;13497;48.322;16.204;2022-09-09T16:23:28;18.20;99.90
25640;DHT22;13497;48.322;16.204;2022-09-09T16:25:55;18.20;99.90
25640;DHT22;13497;48.322;16.204;2022-09-09T16:28:21;18.20;99.90
25640;DHT22;13497;48.322;16.204;2022-09-09T16:30:47;18.20;99.90
25640;DHT22;13497;48.322;16.204;2022-09-09T16:33:13;18.20;99.90
25640;DHT22;13497;48.322;16.204;2022-09-09T16:35:40;18.20;99.90
25640;DHT22;13497;48.322;16.204;2022-09-09T16:38:08;18.20;99.90
25640;DHT22;13497;48.322;16.204;2022-09-09T16:40:34;18.30;99.90
25640;DHT22;13497;48.322;16.204;2022-09-09T16:43:02;18.30;99.90
25640;DHT22;13497;48.322;16.204;2022-09-09T16:45:27;18.40;99.90
25640;DHT22;13497;48.322;16.204;2022-09-09T16:47:53;18.40;99.90
25640;DHT22;13497;48.322;16.204;2022-09-09T16:50:19;18.40;99.90
25640;DHT22;13497;48.322;16.204;2022-09-09T16:52:45;18.40;99.90
25640;DHT22;13497;48.322;16.204;2022-09-09T16:55:10;18.40;99.90
25640;DHT22;13497;48.322;16.204;2022-09-09T16:57:36;18.30;99.90
25640;DHT22;13497;48.322;16.204;2022-09-09T17:00:03;18.40;99.90
25640;DHT22;13497;48.322;16.204;2022-09-09T17:02:31;18.30;99.90
25640;DHT22;13497;48.322;16.204;2022-09-09T17:04:56;18.20;99.90
25640;DHT22;13497;48.322;16.204;2022-09-09T17:07:22;18.20;99.90
25640;DHT22;13497;48.322;16.204;2022-09-09T17:09:48;18.20;99.90
25640;DHT22;13497;48.322;16.204;2022-09-09T17:12:14;18.20;99.90
25640;DHT22;13497;48.322;16.204;2022-09-09T17:14:41;18.10;99.90
25640;DHT22;13497;48.322;16.204;2022-09-09T17:17:07;18.00;99.90
25640;DHT22;13497;48.322;16.204;2022-09-09T17:19:33;17.90;99.90
25640;DHT22;13497;48.322;16.204;2022-09-09T17:21:59;17.90;99.90
25640;DHT22;13497;48.322;16.204;2022-09-09T17:24:26;17.70;99.90
25640;DHT22;13497;48.322;16.204;2022-09-09T17:26:52;17.30;99.90
25640;DHT22;13497;48.322;16.204;2022-09-09T17:29:21;17.10;99.90
25640;DHT22;13497;48.322;16.204;2022-09-09T17:31:47;16.90;99.90
25640;DHT22;13497;48.322;16.204;2022-09-09T17:34:13;16.90;99.90
25640;DHT22;13497;48.322;16.204;2022-09-09T17:36:39;16.80;99.90
25640;DHT22;13497;48.322;16.204;2022-09-09T17:39:05;16.70;99.90
25640;DHT22;13497;48.322;16.204;2022-09-09T17:41:32;16.60;99.90
25640;DHT22;13497;48.322;16.204;2022-09-09T17:43:58;16.60;99.90
25640;DHT22;13497;48.322;16.204;2022-09-09T17:46:26;16.60;99.90
25640;DHT22;13497;48.322;16.204;2022-09-09T17:48:56;16.60;99.90
25640;DHT22;13497;48.322;16.204;2022-09-09T17:51:25;16.70;99.90